Time;durP1;ratioP1;P1;durP2;ratioP2;P2;SDS_P1;SDS_P2;PMS_P1;PMS_P2;Temp;Humidity;BMP_temperature;BMP_pressure;BME280_temperature;BME280_humidity;BME280_pressure;Samples;Min_cycle;Max_cycle;Signal;HPM_P1;HPM_P2
2023/12/13 00:02:08;;;;;;;0.50;0.50;;;11.40;71.00;;;;;;5072298;28;20029;-72
2023/12/13 00:04:34;;;;;;;0.40;0.40;;;11.40;70.90;;;;;;5078674;28;20033;-73
2023/12/13 00:06:59;;;;;;;0.80;0.80;;;11.40;71.20;;;;;;5090499;28;20032;-73
2023/12/13 00:09:25;;;;;;;0.50;0.50;;;11.40;71.50;;;;;;5086847;28;20052;-73
2023/12/13 00:11:50;;;;;;;0.50;0.50;;;11.50;71.60;;;;;;5088836;28;20045;-72
2023/12/13 00:14:17;;;;;;;0.40;0.40;;;11.50;71.60;;;;;;5088521;28;20067;-73
2023/12/13 00:16:42;;;;;;;0.40;0.40;;;11.60;71.70;;;;;;5073289;28;20005;-73
2023/12/13 00:19:08;;;;;;;0.40;0.40;;;11.60;71.60;;;;;;5084019;28;20036;-72
2023/12/13 00:21:33;;;;;;;0.40;0.40;;;11.60;71.40;;;;;;5087162;28;20032;-72
2023/12/13 00:23:59;;;;;;;0.40;0.40;;;11.60;71.20;;;;;;5111157;28;20040;-73
2023/12/13 00:26:24;;;;;;;0.40;0.40;;;11.50;71.10;;;;;;5112974;28;20066;-72
2023/12/13 00:28:50;;;;;;;0.50;0.50;;;11.50;71.20;;;;;;5113759;28;20138;-73
2023/12/13 00:31:16;;;;;;;0.50;0.50;;;11.50;71.50;;;;;;5114331;28;20062;-73
2023/12/13 00:33:42;;;;;;;0.50;0.50;;;11.50;71.70;;;;;;5114437;28;20012;-73
2023/12/13 00:36:08;;;;;;;1.45;0.95;;;11.50;71.90;;;;;;5113979;28;20008;-73
2023/12/13 00:38:33;;;;;;;0.68;0.68;;;11.60;72.10;;;;;;5103823;28;20031;-73
2023/12/13 00:40:59;;;;;;;0.35;0.35;;;11.70;72.20;;;;;;5093115;28;20016;-73
2023/12/13 00:43:24;;;;;;;0.60;0.60;;;11.70;72.10;;;;;;5093843;28;20021;-73
2023/12/13 00:45:50;;;;;;;0.40;0.40;;;11.70;72.20;;;;;;5093054;28;20029;-72
2023/12/13 00:48:16;;;;;;;0.40;0.40;;;11.80;72.30;;;;;;5110005;28;20044;-72
2023/12/13 00:50:41;;;;;;;0.60;0.60;;;11.90;72.50;;;;;;5112349;28;20036;-72
2023/12/13 00:53:07;;;;;;;0.77;0.77;;;11.90;72.50;;;;;;5113709;28;20065;-73
2023/12/13 00:55:32;;;;;;;0.98;0.90;;;12.00;72.60;;;;;;5112665;28;20028;-72
2023/12/13 00:57:58;;;;;;;0.43;0.43;;;12.10;72.60;;;;;;5099267;28;20033;-73
2023/12/13 01:00:24;;;;;;;0.60;0.60;;;12.20;72.50;;;;;;5084536;28;20021;-73
2023/12/13 01:02:50;;;;;;;0.55;0.55;;;12.20;72.30;;;;;;5081557;28;20036;-73
2023/12/13 01:05:15;;;;;;;0.40;0.40;;;12.20;72.20;;;;;;5083843;28;20017;-73
2023/12/13 01:07:41;;;;;;;0.55;0.55;;;12.20;72.20;;;;;;5065075;28;20040;-73
2023/12/13 01:10:07;;;;;;;1.38;1.27;;;12.20;72.40;;;;;;5059517;28;20074;-74
2023/12/13 01:12:32;;;;;;;1.05;0.95;;;12.30;72.50;;;;;;5059166;28;20098;-73
2023/12/13 01:14:58;;;;;;;0.50;0.50;;;12.30;72.60;;;;;;5073589;28;20044;-73
2023/12/13 01:17:23;;;;;;;0.50;0.50;;;12.40;72.60;;;;;;5067373;28;20025;-73
2023/12/13 01:19:50;;;;;;;0.70;0.70;;;12.40;72.60;;;;;;5077107;28;20025;-73
2023/12/13 01:22:15;;;;;;;0.60;0.60;;;12.50;72.60;;;;;;5074333;28;20066;-73
2023/12/13 01:24:41;;;;;;;0.45;0.45;;;12.50;72.60;;;;;;5076592;28;20476;-73
2023/12/13 01:27:06;;;;;;;0.52;0.52;;;12.50;72.60;;;;;;5080065;28;20028;-73
2023/12/13 01:29:32;;;;;;;0.50;0.50;;;12.50;72.50;;;;;;5078020;28;20052;-73
2023/12/13 01:31:57;;;;;;;0.30;0.30;;;12.60;72.60;;;;;;5076126;28;20099;-73
2023/12/13 01:34:23;;;;;;;0.40;0.40;;;12.60;72.60;;;;;;5075356;28;20166;-73
2023/12/13 01:36:48;;;;;;;0.40;0.40;;;12.60;72.60;;;;;;5073761;28;20384;-73
2023/12/13 01:39:16;;;;;;;0.40;0.40;;;12.60;72.60;;;;;;5075699;28;20037;-73
2023/12/13 01:41:43;;;;;;;0.60;0.60;;;12.60;72.60;;;;;;5075622;28;20025;-73
2023/12/13 01:44:09;;;;;;;0.50;0.50;;;12.60;72.70;;;;;;5075407;28;20038;-73
2023/12/13 01:46:36;;;;;;;0.50;0.50;;;12.60;72.60;;;;;;5077936;28;20107;-73
2023/12/13 01:49:02;;;;;;;0.50;0.50;;;12.60;72.50;;;;;;5096743;28;20077;-73
2023/12/13 01:51:28;;;;;;;1.42;1.13;;;12.60;72.50;;;;;;5071872;28;20033;-73
2023/12/13 01:53:55;;;;;;;0.50;0.50;;;12.60;72.40;;;;;;5067487;28;20024;-73
2023/12/13 01:56:20;;;;;;;0.40;0.40;;;12.60;72.60;;;;;;5069169;28;20025;-73
2023/12/13 01:58:46;;;;;;;0.50;0.50;;;12.50;72.70;;;;;;5063774;28;20061;-73
2023/12/13 02:01:12;;;;;;;0.40;0.40;;;12.50;72.50;;;;;;5061727;28;20025;-73
2023/12/13 02:03:38;;;;;;;0.40;0.40;;;12.50;72.60;;;;;;5062285;28;20028;-73
2023/12/13 02:06:04;;;;;;;0.50;0.50;;;12.50;72.70;;;;;;5066760;28;20099;-73
2023/12/13 02:08:30;;;;;;;0.40;0.40;;;12.50;72.80;;;;;;5074995;28;20028;-73
2023/12/13 02:10:58;;;;;;;0.40;0.40;;;12.50;72.90;;;;;;5058988;28;20104;-73
2023/12/13 02:13:23;;;;;;;0.50;0.50;;;12.50;72.80;;;;;;5073024;28;20039;-71
2023/12/13 02:15:49;;;;;;;0.47;0.47;;;12.50;72.90;;;;;;5066269;28;20016;-71
2023/12/13 02:18:15;;;;;;;0.38;0.38;;;12.50;72.90;;;;;;5052407;28;20048;-71
2023/12/13 02:20:41;;;;;;;0.40;0.40;;;12.50;73.00;;;;;;5051874;28;20538;-71
2023/12/13 02:23:07;;;;;;;0.50;0.50;;;12.60;73.00;;;;;;5058926;28;20025;-71
2023/12/13 02:25:42;;;;;;;0.40;0.40;;;12.60;72.90;;;;;;5067943;28;20020;-71
2023/12/13 02:28:08;;;;;;;0.47;0.47;;;12.60;72.90;;;;;;5069207;28;20029;-71
2023/12/13 02:30:34;;;;;;;0.50;0.50;;;12.60;72.90;;;;;;5052224;28;20021;-71
2023/12/13 02:33:00;;;;;;;0.32;0.32;;;12.60;72.80;;;;;;5052116;28;20041;-71
2023/12/13 02:35:25;;;;;;;0.40;0.40;;;12.50;72.80;;;;;;5052159;28;20056;-71
2023/12/13 02:37:51;;;;;;;0.40;0.40;;;12.60;72.90;;;;;;5051973;28;20036;-70
2023/12/13 02:40:17;;;;;;;0.40;0.40;;;12.60;72.90;;;;;;5055281;28;20017;-71
2023/12/13 02:42:43;;;;;;;0.43;0.43;;;12.60;72.90;;;;;;5072144;28;20032;-70
2023/12/13 02:45:13;;;;;;;0.50;0.50;;;12.60;72.90;;;;;;5072187;28;20051;-70
2023/12/13 02:47:42;;;;;;;0.40;0.40;;;12.60;72.90;;;;;;5083786;28;20039;-70
2023/12/13 02:50:13;;;;;;;0.45;0.45;;;12.60;72.90;;;;;;5090282;28;20065;-70
2023/12/13 02:52:40;;;;;;;0.40;0.40;;;12.60;72.80;;;;;;5062559;28;20495;-71
2023/12/13 02:55:09;;;;;;;0.40;0.40;;;12.70;72.70;;;;;;5054325;28;20021;-71
2023/12/13 02:57:34;;;;;;;0.50;0.50;;;12.60;72.60;;;;;;5065685;28;20040;-70
2023/12/13 03:00:00;;;;;;;0.50;0.50;;;12.60;72.50;;;;;;5061470;28;20033;-71
2023/12/13 03:02:26;;;;;;;0.50;0.50;;;12.60;72.60;;;;;;5061620;28;20431;-70
2023/12/13 03:04:52;;;;;;;0.40;0.40;;;12.60;72.40;;;;;;5056096;28;20025;-71
2023/12/13 03:07:17;;;;;;;0.47;0.47;;;12.60;72.40;;;;;;5057374;28;20078;-71
2023/12/13 03:09:43;;;;;;;0.47;0.47;;;12.60;72.10;;;;;;5671404;22;20110;-71
2023/12/13 03:12:10;;;;;;;0.47;0.47;;;12.60;72.10;;;;;;5085650;22;20078;-71
2023/12/13 03:14:36;;;;;;;0.40;0.40;;;12.50;72.10;;;;;;5089871;28;20024;-70
2023/12/13 03:17:01;;;;;;;0.45;0.45;;;12.50;72.20;;;;;;5090162;28;20367;-71
2023/12/13 03:19:27;;;;;;;0.40;0.40;;;12.50;72.30;;;;;;5090602;28;20386;-71
2023/12/13 03:21:52;;;;;;;0.40;0.40;;;12.50;72.40;;;;;;5091639;28;20036;-71
2023/12/13 03:24:18;;;;;;;0.50;0.50;;;12.60;72.40;;;;;;5089070;28;20509;-70
2023/12/13 03:26:43;;;;;;;0.40;0.40;;;12.60;72.50;;;;;;5090078;28;20032;-70
2023/12/13 03:29:09;;;;;;;1.70;1.60;;;12.60;72.40;;;;;;5071918;28;20031;-71
2023/12/13 03:31:34;;;;;;;0.47;0.47;;;12.60;72.40;;;;;;5090385;28;20473;-70
2023/12/13 03:34:03;;;;;;;0.50;0.50;;;12.60;72.40;;;;;;5089691;28;20047;-70
2023/12/13 03:36:29;;;;;;;0.40;0.40;;;12.50;72.50;;;;;;5090168;28;20036;-70
2023/12/13 03:38:54;;;;;;;0.50;0.50;;;12.60;72.60;;;;;;5071681;28;20152;-71
2023/12/13 03:41:20;;;;;;;0.60;0.60;;;12.60;72.60;;;;;;5089492;28;20032;-70
2023/12/13 03:43:45;;;;;;;1.30;1.02;;;12.70;72.50;;;;;;5090365;28;20059;-70
2023/12/13 03:46:11;;;;;;;0.40;0.40;;;12.60;72.50;;;;;;5089837;28;20032;-70
2023/12/13 03:48:37;;;;;;;0.40;0.40;;;12.60;72.50;;;;;;5090142;28;20032;-71
2023/12/13 03:51:03;;;;;;;0.47;0.47;;;12.70;72.50;;;;;;5089680;28;20068;-71
2023/12/13 03:53:29;;;;;;;1.30;1.17;;;12.70;72.40;;;;;;5090174;28;20075;-71
2023/12/13 03:55:54;;;;;;;0.40;0.40;;;12.70;72.50;;;;;;5090675;28;20060;-70
2023/12/13 03:58:20;;;;;;;0.43;0.43;;;12.70;72.50;;;;;;5071878;28;20035;-70
2023/12/13 04:00:46;;;;;;;0.40;0.40;;;12.70;72.40;;;;;;5076495;28;20032;-70
2023/12/13 04:03:11;;;;;;;0.40;0.40;;;12.70;72.40;;;;;;5089073;28;20028;-70
2023/12/13 04:05:37;;;;;;;0.40;0.40;;;12.70;72.40;;;;;;5082375;28;20043;-70
2023/12/13 04:08:03;;;;;;;4.50;1.00;;;12.70;72.40;;;;;;5088890;28;20161;-70
2023/12/13 04:10:28;;;;;;;0.60;0.60;;;12.70;72.20;;;;;;5089429;28;20123;-70
2023/12/13 04:12:54;;;;;;;1.35;1.05;;;12.60;72.20;;;;;;5090432;28;20039;-70
2023/12/13 04:15:19;;;;;;;0.55;0.55;;;12.70;72.10;;;;;;5089317;28;20032;-69
2023/12/13 04:17:45;;;;;;;0.60;0.60;;;12.60;72.00;;;;;;5090560;28;20386;-70
2023/12/13 04:20:11;;;;;;;0.40;0.40;;;12.60;71.90;;;;;;5096901;28;20077;-72
2023/12/13 04:22:36;;;;;;;0.50;0.50;;;12.60;72.20;;;;;;5099632;28;20044;-72
2023/12/13 04:25:02;;;;;;;0.50;0.50;;;12.60;72.40;;;;;;5106514;28;20043;-72
2023/12/13 04:27:28;;;;;;;1.10;0.85;;;12.60;72.50;;;;;;5105765;28;20425;-72
2023/12/13 04:29:53;;;;;;;0.50;0.50;;;12.60;72.50;;;;;;5106693;28;20036;-73
2023/12/13 04:32:19;;;;;;;0.70;0.57;;;12.50;72.30;;;;;;5106655;28;20040;-73
2023/12/13 04:34:44;;;;;;;0.50;0.50;;;12.50;72.20;;;;;;5108612;28;20028;-73
2023/12/13 04:37:10;;;;;;;0.50;0.50;;;12.50;72.10;;;;;;5110678;28;20039;-73
2023/12/13 04:39:35;;;;;;;0.60;0.60;;;12.50;72.10;;;;;;5109202;28;20032;-73
2023/12/13 04:42:03;;;;;;;0.50;0.50;;;12.50;72.00;;;;;;5112020;28;20076;-73
2023/12/13 04:44:30;;;;;;;0.50;0.50;;;12.40;72.00;;;;;;5112018;28;20020;-73
2023/12/13 04:46:56;;;;;;;0.43;0.43;;;12.40;72.10;;;;;;5111665;28;20032;-73
2023/12/13 04:49:21;;;;;;;0.50;0.50;;;12.40;72.20;;;;;;5112460;28;20055;-73
2023/12/13 04:51:47;;;;;;;3.70;1.48;;;12.40;72.30;;;;;;5110909;28;20040;-73
2023/12/13 04:54:12;;;;;;;0.40;0.40;;;12.40;72.30;;;;;;5093159;28;20057;-73
2023/12/13 04:56:37;;;;;;;0.60;0.60;;;12.40;72.30;;;;;;5107171;28;20032;-73
2023/12/13 04:59:03;;;;;;;0.50;0.50;;;12.40;72.30;;;;;;5099682;28;20024;-73
2023/12/13 05:01:28;;;;;;;0.90;0.90;;;12.50;72.30;;;;;;5109573;28;20039;-73
2023/12/13 05:03:54;;;;;;;0.50;0.50;;;12.50;72.30;;;;;;5115204;28;20095;-73
2023/12/13 05:06:19;;;;;;;0.80;0.80;;;12.50;72.20;;;;;;5096311;28;20065;-73
2023/12/13 05:08:46;;;;;;;0.40;0.40;;;12.40;72.20;;;;;;5105979;28;20097;-73
2023/12/13 05:11:12;;;;;;;0.95;0.95;;;12.40;72.20;;;;;;5110041;28;20040;-73
2023/12/13 05:13:37;;;;;;;0.55;0.55;;;12.40;72.20;;;;;;5106402;28;20047;-73
2023/12/13 05:16:03;;;;;;;0.50;0.50;;;12.40;72.20;;;;;;5111874;28;20032;-73
2023/12/13 05:18:29;;;;;;;1.27;1.02;;;12.40;72.20;;;;;;5112545;28;20024;-73
2023/12/13 05:20:54;;;;;;;0.52;0.52;;;12.40;72.00;;;;;;5112824;28;20036;-73
2023/12/13 05:23:20;;;;;;;1.65;1.55;;;12.30;71.80;;;;;;5108512;28;20028;-73
2023/12/13 05:25:45;;;;;;;0.60;0.60;;;12.30;71.80;;;;;;5105608;28;20032;-73
2023/12/13 05:28:11;;;;;;;0.50;0.50;;;12.30;71.80;;;;;;5111880;28;20035;-73
2023/12/13 05:30:36;;;;;;;4.13;1.67;;;12.20;71.80;;;;;;5101377;28;20054;-70
2023/12/13 05:33:02;;;;;;;0.70;0.70;;;12.20;72.00;;;;;;5074492;28;20024;-71
2023/12/13 05:35:28;;;;;;;0.85;0.85;;;12.20;72.20;;;;;;5073333;28;20479;-70
2023/12/13 05:37:53;;;;;;;0.82;0.80;;;12.30;72.30;;;;;;5073405;28;20016;-70
2023/12/13 05:40:19;;;;;;;1.55;1.45;;;12.30;72.30;;;;;;5073019;28;20032;-69
2023/12/13 05:42:44;;;;;;;0.63;0.63;;;12.30;72.20;;;;;;5073127;28;20021;-69
2023/12/13 05:45:10;;;;;;;1.02;1.02;;;12.30;72.20;;;;;;5072359;28;20028;-70
2023/12/13 05:47:35;;;;;;;0.77;0.77;;;12.30;72.20;;;;;;5092216;28;20054;-70
2023/12/13 05:50:04;;;;;;;0.50;0.50;;;12.30;72.30;;;;;;5090982;28;20110;-70
2023/12/13 05:52:32;;;;;;;0.40;0.40;;;12.30;72.30;;;;;;5076493;28;20391;-71
2023/12/13 05:54:57;;;;;;;0.57;0.57;;;12.40;72.30;;;;;;5078802;28;20016;-70
2023/12/13 05:57:23;;;;;;;0.50;0.50;;;12.40;72.20;;;;;;5093629;28;20073;-70
2023/12/13 05:59:48;;;;;;;1.02;1.00;;;12.50;72.20;;;;;;5093104;28;20031;-70
2023/12/13 06:02:14;;;;;;;0.70;0.70;;;12.40;72.10;;;;;;5092323;28;20125;-70
2023/12/13 06:04:41;;;;;;;1.35;1.02;;;12.40;72.20;;;;;;5091692;28;20372;-70
2023/12/13 06:07:07;;;;;;;0.70;0.70;;;12.50;72.20;;;;;;5088276;28;20036;-70
2023/12/13 06:09:33;;;;;;;4.28;0.95;;;12.50;72.10;;;;;;5071777;28;20050;-72
2023/12/13 06:11:58;;;;;;;0.52;0.52;;;12.50;72.10;;;;;;5075113;28;20028;-70
2023/12/13 06:14:23;;;;;;;0.43;0.43;;;12.50;72.20;;;;;;5074023;28;20081;-70
2023/12/13 06:16:49;;;;;;;0.50;0.50;;;12.50;72.30;;;;;;5079067;28;20035;-72
2023/12/13 06:19:14;;;;;;;0.50;0.50;;;12.50;72.20;;;;;;5078668;28;20037;-70
2023/12/13 06:21:40;;;;;;;0.50;0.50;;;12.50;72.10;;;;;;5091748;28;20020;-70
2023/12/13 06:24:05;;;;;;;0.65;0.65;;;12.50;72.10;;;;;;5090459;28;20032;-71
2023/12/13 06:26:31;;;;;;;0.40;0.40;;;12.50;72.20;;;;;;5091662;28;20467;-70
2023/12/13 06:28:57;;;;;;;0.50;0.50;;;12.50;72.20;;;;;;5090204;28;20485;-70
2023/12/13 06:31:23;;;;;;;0.50;0.50;;;12.50;72.20;;;;;;5088683;28;20123;-70
2023/12/13 06:33:48;;;;;;;0.50;0.50;;;12.50;72.30;;;;;;5090884;28;20032;-71
2023/12/13 06:36:14;;;;;;;0.50;0.50;;;12.50;72.30;;;;;;5089887;28;20037;-71
2023/12/13 06:38:40;;;;;;;0.65;0.65;;;12.50;72.30;;;;;;5091869;28;20047;-71
2023/12/13 06:41:06;;;;;;;0.35;0.35;;;12.50;72.20;;;;;;5080241;28;20056;-72
2023/12/13 06:43:31;;;;;;;0.47;0.47;;;12.50;72.30;;;;;;5092615;28;20055;-72
2023/12/13 06:45:57;;;;;;;0.47;0.47;;;12.50;72.30;;;;;;5084226;28;20044;-71
2023/12/13 06:48:22;;;;;;;0.50;0.50;;;12.50;72.30;;;;;;5089830;28;20530;-71
2023/12/13 06:50:48;;;;;;;0.55;0.55;;;12.60;72.30;;;;;;5099960;28;20032;-73
2023/12/13 06:53:13;;;;;;;0.50;0.50;;;12.60;72.30;;;;;;5102351;28;20032;-74
2023/12/13 06:55:39;;;;;;;0.70;0.70;;;12.50;72.20;;;;;;5096589;28;20029;-73
2023/12/13 06:58:06;;;;;;;0.40;0.40;;;12.50;72.10;;;;;;5083953;28;20035;-74
2023/12/13 07:00:31;;;;;;;0.43;0.43;;;12.50;72.20;;;;;;5097188;28;20012;-74
2023/12/13 07:02:56;;;;;;;0.50;0.50;;;12.50;72.10;;;;;;5087855;28;20037;-74
2023/12/13 07:05:22;;;;;;;0.82;0.82;;;12.50;72.10;;;;;;5079045;28;20035;-74
2023/12/13 07:07:48;;;;;;;0.47;0.47;;;12.50;72.30;;;;;;5070642;28;20028;-74
2023/12/13 07:10:14;;;;;;;0.32;0.32;;;12.40;72.30;;;;;;5094131;28;20024;-74
2023/12/13 07:12:40;;;;;;;0.50;0.50;;;12.40;72.40;;;;;;5090700;28;20406;-74
2023/12/13 07:15:07;;;;;;;0.40;0.40;;;12.40;72.50;;;;;;5092039;28;20031;-74
2023/12/13 07:17:33;;;;;;;0.50;0.50;;;12.40;72.50;;;;;;5101212;28;20024;-74
2023/12/13 07:19:59;;;;;;;1.65;1.25;;;12.40;72.50;;;;;;5099438;28;20024;-75
2023/12/13 07:22:24;;;;;;;0.50;0.50;;;12.50;72.60;;;;;;5094801;28;20039;-74
2023/12/13 07:24:50;;;;;;;0.40;0.40;;;12.40;72.70;;;;;;5093968;28;20038;-74
2023/12/13 07:27:16;;;;;;;0.80;0.80;;;12.40;72.50;;;;;;5093881;28;20386;-74
2023/12/13 07:29:42;;;;;;;0.50;0.50;;;12.40;72.40;;;;;;5095012;28;20028;-74
2023/12/13 07:32:08;;;;;;;0.40;0.40;;;12.40;72.50;;;;;;5094860;28;20028;-74
2023/12/13 07:34:34;;;;;;;0.40;0.40;;;12.40;72.60;;;;;;5075116;28;20024;-74
2023/12/13 07:36:59;;;;;;;0.43;0.43;;;12.40;72.70;;;;;;5094688;28;20072;-74
2023/12/13 07:39:26;;;;;;;0.40;0.40;;;12.40;72.70;;;;;;5100180;28;20023;-74
2023/12/13 07:41:51;;;;;;;0.50;0.50;;;12.40;72.70;;;;;;5105077;28;20053;-74
2023/12/13 07:44:17;;;;;;;0.40;0.40;;;12.40;72.70;;;;;;5109673;28;20113;-74
2023/12/13 07:46:42;;;;;;;0.40;0.40;;;12.40;72.80;;;;;;5109616;28;20050;-74
2023/12/13 07:49:08;;;;;;;0.50;0.50;;;12.40;72.90;;;;;;5107239;28;20036;-74
2023/12/13 07:51:34;;;;;;;0.50;0.50;;;12.40;72.90;;;;;;5106034;28;20524;-74
2023/12/13 07:54:01;;;;;;;0.50;0.50;;;12.50;72.90;;;;;;5107313;28;20035;-74
2023/12/13 07:56:28;;;;;;;0.50;0.50;;;12.50;72.90;;;;;;5108609;28;20025;-74
2023/12/13 07:58:54;;;;;;;0.50;0.50;;;12.50;72.90;;;;;;5107172;28;20024;-74
2023/12/13 08:01:20;;;;;;;0.40;0.40;;;12.60;72.80;;;;;;5108161;28;20032;-74
2023/12/13 08:03:45;;;;;;;0.50;0.50;;;12.60;72.90;;;;;;5107511;28;20436;-74
2023/12/13 08:06:14;;;;;;;0.43;0.43;;;12.60;72.90;;;;;;5100701;28;20040;-74
2023/12/13 08:08:41;;;;;;;0.50;0.50;;;12.60;72.90;;;;;;5110673;28;20066;-74
2023/12/13 08:11:07;;;;;;;0.60;0.60;;;12.70;73.00;;;;;;5078796;28;20048;-72
2023/12/13 08:13:35;;;;;;;0.40;0.40;;;12.70;73.00;;;;;;5095395;28;20028;-72
2023/12/13 08:16:00;;;;;;;0.40;0.40;;;12.70;73.10;;;;;;5095215;28;20064;-72
2023/12/13 08:18:26;;;;;;;0.40;0.40;;;12.80;73.10;;;;;;5093851;28;20060;-72
2023/12/13 08:20:51;;;;;;;0.45;0.45;;;12.90;73.00;;;;;;5095097;28;20081;-72
2023/12/13 08:23:17;;;;;;;0.40;0.40;;;12.90;72.90;;;;;;5093455;28;20052;-72
2023/12/13 08:25:43;;;;;;;0.40;0.40;;;12.90;73.10;;;;;;5093950;28;20036;-71
2023/12/13 08:28:08;;;;;;;0.45;0.45;;;13.00;73.10;;;;;;5092953;28;20024;-70
2023/12/13 08:30:34;;;;;;;0.40;0.40;;;13.00;73.10;;;;;;5087543;28;20036;-70
2023/12/13 08:33:00;;;;;;;0.40;0.40;;;13.00;73.10;;;;;;5092945;28;20077;-70
2023/12/13 08:35:26;;;;;;;0.50;0.50;;;13.10;73.20;;;;;;5093355;28;20032;-71
2023/12/13 08:37:52;;;;;;;0.40;0.40;;;13.20;73.30;;;;;;5090592;28;20039;-70
2023/12/13 08:40:18;;;;;;;0.50;0.50;;;13.20;73.20;;;;;;5094198;28;20031;-70
2023/12/13 08:42:43;;;;;;;0.50;0.50;;;13.30;73.00;;;;;;5093594;28;20032;-70
2023/12/13 08:45:10;;;;;;;0.80;0.80;;;13.30;73.10;;;;;;5094206;28;20393;-71
2023/12/13 08:47:36;;;;;;;0.50;0.50;;;13.30;73.20;;;;;;5094726;28;20058;-70
2023/12/13 08:50:02;;;;;;;0.40;0.40;;;13.40;73.30;;;;;;5092967;28;20036;-71
2023/12/13 08:52:27;;;;;;;0.30;0.30;;;13.40;73.20;;;;;;5093904;28;20426;-71
2023/12/13 08:54:53;;;;;;;0.50;0.50;;;13.50;73.30;;;;;;5093475;28;20402;-70
2023/12/13 08:57:19;;;;;;;0.60;0.60;;;13.50;73.30;;;;;;5092862;28;20460;-70
2023/12/13 08:59:44;;;;;;;0.40;0.40;;;13.60;73.20;;;;;;5094023;28;20060;-70
2023/12/13 09:02:10;;;;;;;0.50;0.50;;;13.70;73.90;;;;;;5093266;28;20418;-70
2023/12/13 09:04:35;;;;;;;0.50;0.50;;;13.80;73.90;;;;;;5093200;28;20035;-71
2023/12/13 09:07:01;;;;;;;0.50;0.50;;;13.90;73.90;;;;;;5075741;28;20027;-71
2023/12/13 09:09:27;;;;;;;0.50;0.50;;;14.00;73.70;;;;;;5093364;28;20383;-71
2023/12/13 09:11:52;;;;;;;0.50;0.50;;;14.00;73.50;;;;;;5093497;28;20033;-72
2023/12/13 09:14:17;;;;;;;0.40;0.40;;;13.90;73.40;;;;;;5093194;28;20122;-71
2023/12/13 09:16:43;;;;;;;0.50;0.50;;;14.00;73.60;;;;;;5093804;28;20032;-71
2023/12/13 09:19:09;;;;;;;0.40;0.40;;;14.10;73.70;;;;;;5092272;28;20016;-71
2023/12/13 09:21:34;;;;;;;0.40;0.40;;;14.20;73.50;;;;;;5101132;28;20028;-73
2023/12/13 09:24:00;;;;;;;0.60;0.60;;;14.20;73.30;;;;;;5103200;28;20034;-73
2023/12/13 09:26:26;;;;;;;0.40;0.40;;;14.30;73.30;;;;;;5098950;28;20020;-73
2023/12/13 09:28:53;;;;;;;0.50;0.50;;;14.30;73.40;;;;;;5103951;28;20083;-73
2023/12/13 09:31:18;;;;;;;0.50;0.50;;;14.30;73.20;;;;;;5102037;28;20020;-73
2023/12/13 09:33:44;;;;;;;0.77;0.77;;;14.30;73.20;;;;;;5102515;28;20054;-73
2023/12/13 09:36:09;;;;;;;0.40;0.40;;;14.30;73.10;;;;;;5103886;28;20043;-73
2023/12/13 09:38:35;;;;;;;0.50;0.50;;;14.30;73.10;;;;;;5100748;28;20020;-74
2023/12/13 09:41:00;;;;;;;0.47;0.47;;;14.30;72.90;;;;;;5102722;28;20032;-73
2023/12/13 09:43:26;;;;;;;0.50;0.50;;;14.30;72.70;;;;;;5083788;28;20111;-73
2023/12/13 09:45:53;;;;;;;0.40;0.40;;;14.40;72.70;;;;;;5103794;28;20101;-74
2023/12/13 09:48:22;;;;;;;0.40;0.40;;;14.30;72.50;;;;;;5101394;28;20471;-74
2023/12/13 09:50:57;;;;;;;0.40;0.40;;;14.30;72.30;;;;;;5102183;28;20036;-73
2023/12/13 09:53:24;;;;;;;1.08;0.80;;;14.30;72.10;;;;;;5100240;28;20115;-72
2023/12/13 09:55:52;;;;;;;0.45;0.45;;;14.20;72.10;;;;;;5081637;28;20099;-73
2023/12/13 09:58:18;;;;;;;0.60;0.60;;;14.20;72.00;;;;;;5101896;28;20031;-72
2023/12/13 10:00:43;;;;;;;0.60;0.60;;;14.10;71.90;;;;;;5101748;28;20031;-73
2023/12/13 10:03:09;;;;;;;0.47;0.47;;;14.10;72.00;;;;;;5085049;28;20024;-74
2023/12/13 10:05:40;;;;;;;0.50;0.50;;;14.10;72.00;;;;;;5100380;28;20083;-74
2023/12/13 10:08:06;;;;;;;0.40;0.40;;;14.00;72.40;;;;;;5099379;28;20067;-74
2023/12/13 10:10:32;;;;;;;0.40;0.40;;;14.10;72.80;;;;;;5099473;28;20039;-74
2023/12/13 10:12:59;;;;;;;0.40;0.40;;;14.20;73.00;;;;;;5083613;28;20039;-74
2023/12/13 10:15:30;;;;;;;0.40;0.40;;;14.30;73.10;;;;;;5103009;28;20073;-73
2023/12/13 10:17:56;;;;;;;0.40;0.40;;;14.30;73.10;;;;;;5087999;28;20555;-73
2023/12/13 10:20:21;;;;;;;0.50;0.50;;;14.30;72.80;;;;;;5104667;28;20024;-74
2023/12/13 10:22:46;;;;;;;0.70;0.70;;;14.40;72.70;;;;;;5105792;28;20379;-73
2023/12/13 10:25:13;;;;;;;0.40;0.40;;;14.40;72.50;;;;;;5102969;28;20024;-73
2023/12/13 10:27:41;;;;;;;0.40;0.40;;;14.40;72.50;;;;;;5086788;28;20020;-73
2023/12/13 10:30:07;;;;;;;0.50;0.50;;;14.40;72.40;;;;;;5103528;28;20061;-73
2023/12/13 10:32:33;;;;;;;0.50;0.50;;;14.40;72.40;;;;;;5102069;28;20024;-73
2023/12/13 10:35:02;;;;;;;0.40;0.40;;;14.40;72.20;;;;;;5100984;28;20028;-73
2023/12/13 10:37:30;;;;;;;0.50;0.50;;;14.30;72.10;;;;;;5104333;28;20087;-72
2023/12/13 10:39:59;;;;;;;0.40;0.40;;;14.40;72.10;;;;;;5104904;28;20024;-74
2023/12/13 10:42:25;;;;;;;0.40;0.40;;;14.40;71.70;;;;;;5105536;28;20035;-74
2023/12/13 10:44:52;;;;;;;0.85;0.70;;;14.40;72.00;;;;;;5105106;28;20529;-73
2023/12/13 10:47:24;;;;;;;0.40;0.40;;;14.40;72.20;;;;;;5105395;28;20048;-73
2023/12/13 10:49:51;;;;;;;1.40;1.00;;;14.40;72.60;;;;;;5103225;28;20039;-74
2023/12/13 10:52:20;;;;;;;0.63;0.63;;;14.50;72.70;;;;;;5108073;28;20079;-73
2023/12/13 10:54:47;;;;;;;0.60;0.60;;;14.50;72.70;;;;;;5091094;28;20032;-73
2023/12/13 10:57:14;;;;;;;1.25;1.02;;;14.60;72.40;;;;;;5109602;28;20039;-73
2023/12/13 10:59:41;;;;;;;0.70;0.70;;;14.60;72.50;;;;;;5109066;28;20092;-73
2023/12/13 11:02:09;;;;;;;0.82;0.82;;;14.60;72.30;;;;;;5105862;28;20058;-73
2023/12/13 11:04:36;;;;;;;0.60;0.60;;;14.70;72.70;;;;;;5107079;28;20057;-73
2023/12/13 11:07:04;;;;;;;0.55;0.55;;;14.70;72.80;;;;;;5107282;28;20043;-73
2023/12/13 11:09:30;;;;;;;0.60;0.60;;;14.80;72.30;;;;;;5107516;28;20482;-74
2023/12/13 11:11:59;;;;;;;0.70;0.70;;;14.80;72.50;;;;;;5106387;28;20483;-74
2023/12/13 11:14:28;;;;;;;0.47;0.47;;;14.80;72.40;;;;;;5105890;28;20040;-73
2023/12/13 11:16:57;;;;;;;1.05;1.00;;;14.80;72.60;;;;;;5107356;28;20032;-74
2023/12/13 11:19:24;;;;;;;0.50;0.50;;;14.90;72.50;;;;;;5106121;28;20020;-73
2023/12/13 11:21:50;;;;;;;0.50;0.50;;;15.00;72.50;;;;;;5105832;28;20475;-73
2023/12/13 11:24:20;;;;;;;0.40;0.40;;;15.00;72.60;;;;;;5104219;28;20028;-73
2023/12/13 11:26:50;;;;;;;0.40;0.40;;;15.00;72.50;;;;;;5103802;28;20038;-73
2023/12/13 11:29:25;;;;;;;0.50;0.50;;;15.10;72.60;;;;;;5106382;28;20228;-73
2023/12/13 11:31:54;;;;;;;0.93;0.93;;;15.10;72.70;;;;;;5107941;28;20036;-73
2023/12/13 11:34:50;;;;;;;0.50;0.50;;;15.20;72.80;;;;;;5105262;28;20028;-71
2023/12/13 11:37:16;;;;;;;0.60;0.60;;;15.20;72.70;;;;;;5084335;28;20040;-71
2023/12/13 11:39:43;;;;;;;0.60;0.60;;;15.30;72.30;;;;;;5105234;28;20035;-73
2023/12/13 11:42:12;;;;;;;0.50;0.50;;;15.30;72.40;;;;;;5106164;28;20040;-73
2023/12/13 11:44:39;;;;;;;0.50;0.50;;;15.30;72.80;;;;;;5105662;28;20032;-73
2023/12/13 11:47:12;;;;;;;0.40;0.40;;;15.30;72.50;;;;;;5103437;28;20040;-74
2023/12/13 11:49:39;;;;;;;0.40;0.40;;;15.30;72.40;;;;;;5104934;28;20044;-73
2023/12/13 11:52:05;;;;;;;0.40;0.40;;;15.30;72.60;;;;;;5102331;28;20111;-74
2023/12/13 11:54:33;;;;;;;0.77;0.77;;;15.30;72.50;;;;;;5104196;28;20036;-73
2023/12/13 11:56:58;;;;;;;0.52;0.52;;;15.30;72.30;;;;;;5105958;28;20047;-71
2023/12/13 11:59:25;;;;;;;0.40;0.40;;;15.30;72.20;;;;;;5106854;28;20024;-72
2023/12/13 12:01:51;;;;;;;0.57;0.57;;;15.20;72.00;;;;;;5096609;28;20181;-73
2023/12/13 12:04:20;;;;;;;0.40;0.40;;;15.20;72.00;;;;;;5093195;28;20350;-73
2023/12/13 12:06:47;;;;;;;0.50;0.50;;;15.10;71.90;;;;;;5093236;28;20406;-73
2023/12/13 12:09:12;;;;;;;0.50;0.50;;;15.00;72.10;;;;;;5093987;28;20410;-74
2023/12/13 12:11:38;;;;;;;0.40;0.40;;;15.00;72.50;;;;;;5093050;28;20111;-72
2023/12/13 12:14:08;;;;;;;0.65;0.65;;;14.90;72.50;;;;;;5095487;28;20017;-73
2023/12/13 12:16:35;;;;;;;0.40;0.40;;;14.90;72.50;;;;;;5096915;28;20063;-73
2023/12/13 12:19:00;;;;;;;0.40;0.40;;;14.90;72.00;;;;;;5094239;28;20111;-73
2023/12/13 12:21:27;;;;;;;1.40;0.77;;;14.80;71.90;;;;;;5092883;28;20071;-73
2023/12/13 12:23:52;;;;;;;0.50;0.50;;;14.80;71.80;;;;;;5093293;28;20028;-73
2023/12/13 12:26:18;;;;;;;0.40;0.40;;;14.70;71.90;;;;;;5094015;28;20039;-73
2023/12/13 12:28:43;;;;;;;0.40;0.40;;;14.70;72.20;;;;;;5096532;28;20032;-73
2023/12/13 12:31:09;;;;;;;0.50;0.50;;;14.70;72.70;;;;;;5096135;28;20024;-74
2023/12/13 12:33:35;;;;;;;0.55;0.55;;;14.70;72.80;;;;;;5093904;28;20021;-74
2023/12/13 12:36:01;;;;;;;0.50;0.50;;;14.70;72.70;;;;;;5075517;28;20036;-74
2023/12/13 12:38:27;;;;;;;0.50;0.50;;;14.70;72.60;;;;;;5093104;28;20043;-75
2023/12/13 12:40:52;;;;;;;0.43;0.43;;;14.70;72.90;;;;;;5096949;28;20062;-73
2023/12/13 12:43:19;;;;;;;0.40;0.40;;;14.80;73.10;;;;;;5102038;28;20096;-73